Time;durP1;ratioP1;P1;durP2;ratioP2;P2;SDS_P1;SDS_P2;PMS_P1;PMS_P2;Temp;Humidity;BMP_temperature;BMP_pressure;BME280_temperature;BME280_humidity;BME280_pressure;Samples;Min_cycle;Max_cycle;Signal;HPM_P1;HPM_P2
2023/10/23 00:00:00;;;;;;;32.37;12.23;;;7.70;99.90;;;;;;4377588;28;659122;-70
2023/10/23 00:02:47;;;;;;;41.57;13.97;;;7.70;99.90;;;;;;4356058;28;659234;-70
2023/10/23 00:05:36;;;;;;;32.50;11.57;;;7.60;99.90;;;;;;4381255;28;659448;-70
2023/10/23 00:08:23;;;;;;;22.20;12.03;;;7.40;99.90;;;;;;4357492;28;659015;-70
2023/10/23 00:11:10;;;;;;;21.70;11.70;;;7.40;99.90;;;;;;4375889;28;659454;-70
2023/10/23 00:13:58;;;;;;;25.77;12.77;;;7.40;99.90;;;;;;4357000;28;658866;-70
2023/10/23 00:16:45;;;;;;;90.03;13.63;;;7.30;99.90;;;;;;4378169;28;659804;-70
2023/10/23 00:19:32;;;;;;;23.43;13.07;;;7.20;99.90;;;;;;4358152;28;658963;-70
2023/10/23 00:22:21;;;;;;;28.57;14.67;;;7.20;99.90;;;;;;4380594;28;659540;-70
2023/10/23 00:25:09;;;;;;;32.67;16.07;;;7.20;99.90;;;;;;4356333;28;659102;-70
2023/10/23 00:27:56;;;;;;;66.83;20.53;;;7.10;99.90;;;;;;4373702;28;658864;-70
2023/10/23 00:30:44;;;;;;;41.53;18.63;;;7.10;99.90;;;;;;4355616;28;658852;-70
2023/10/23 00:33:31;;;;;;;49.17;19.93;;;7.00;99.90;;;;;;4380107;28;659328;-70
2023/10/23 00:36:19;;;;;;;71.57;22.73;;;7.00;99.90;;;;;;4334891;28;658797;-70
2023/10/23 00:39:07;;;;;;;42.87;21.47;;;7.00;99.90;;;;;;4370044;28;659800;-70
2023/10/23 00:41:54;;;;;;;32.83;18.50;;;6.90;99.90;;;;;;4358980;28;659040;-70
2023/10/23 00:44:42;;;;;;;34.53;19.13;;;6.90;99.90;;;;;;4378103;28;658936;-69
2023/10/23 00:47:29;;;;;;;36.27;18.80;;;6.80;99.90;;;;;;4357214;28;659107;-70
2023/10/23 00:50:16;;;;;;;33.17;18.77;;;6.90;99.90;;;;;;4373578;28;659344;-70
2023/10/23 00:53:03;;;;;;;83.60;19.10;;;6.80;99.90;;;;;;4353357;28;658912;-70
2023/10/23 00:55:52;;;;;;;38.45;19.90;;;6.80;99.90;;;;;;4374854;28;658245;-70
2023/10/23 00:58:41;;;;;;;40.40;18.97;;;6.70;99.90;;;;;;4353617;28;659263;-70
2023/10/23 01:01:28;;;;;;;36.47;19.87;;;6.70;99.90;;;;;;4354682;28;658415;-70
2023/10/23 01:04:15;;;;;;;190.73;22.27;;;6.70;99.90;;;;;;4379584;28;659832;-70
2023/10/23 01:07:02;;;;;;;77.18;19.70;;;6.70;99.90;;;;;;4358168;28;659664;-70
2023/10/23 01:09:50;;;;;;;37.73;19.60;;;6.70;99.90;;;;;;4375991;28;659324;-70
2023/10/23 01:12:40;;;;;;;167.93;23.93;;;6.70;99.90;;;;;;4375449;28;658883;-70
2023/10/23 01:15:28;;;;;;;35.53;20.07;;;6.70;99.90;;;;;;4365767;28;659321;-70
2023/10/23 01:18:15;;;;;;;32.97;19.07;;;6.60;99.90;;;;;;4373939;28;659376;-69
2023/10/23 01:21:02;;;;;;;35.07;20.60;;;6.60;99.90;;;;;;4371550;28;658113;-70
2023/10/23 01:23:50;;;;;;;60.83;19.90;;;6.50;99.90;;;;;;4377289;28;659517;-70
2023/10/23 01:26:39;;;;;;;32.33;18.37;;;6.50;99.90;;;;;;4370688;28;659311;-70
2023/10/23 01:29:26;;;;;;;416.23;28.63;;;6.70;99.90;;;;;;4374356;28;659877;-70
2023/10/23 01:32:13;;;;;;;130.07;20.13;;;6.90;99.90;;;;;;4346404;28;659686;-70
2023/10/23 01:35:00;;;;;;;28.00;17.10;;;6.80;99.90;;;;;;4371048;28;660225;-70
2023/10/23 01:37:48;;;;;;;33.97;18.73;;;6.60;99.90;;;;;;4345769;28;658587;-70
2023/10/23 01:40:35;;;;;;;30.40;16.00;;;6.60;99.90;;;;;;4372699;28;659160;-70
2023/10/23 01:43:24;;;;;;;30.97;16.97;;;6.60;99.90;;;;;;4351822;28;658685;-70
2023/10/23 01:46:11;;;;;;;31.87;17.33;;;6.60;99.90;;;;;;4369117;28;658892;-70
2023/10/23 01:48:58;;;;;;;31.03;17.40;;;6.60;99.90;;;;;;4351641;28;659056;-70
2023/10/23 01:51:45;;;;;;;33.97;17.95;;;6.60;99.90;;;;;;4369423;28;658398;-70
2023/10/23 01:54:33;;;;;;;33.80;17.10;;;6.50;99.90;;;;;;4347179;28;657939;-70
2023/10/23 01:57:20;;;;;;;33.07;17.07;;;6.50;99.90;;;;;;4366670;28;659765;-70
2023/10/23 02:00:10;;;;;;;31.87;15.37;;;6.50;99.90;;;;;;4349877;28;658397;-70
2023/10/23 02:02:57;;;;;;;33.63;17.17;;;6.50;99.90;;;;;;4354892;28;658959;-70
2023/10/23 02:05:46;;;;;;;28.17;15.27;;;6.50;99.90;;;;;;4370736;28;659145;-70
2023/10/23 02:08:33;;;;;;;28.85;15.60;;;6.60;99.90;;;;;;4342362;28;658742;-70
2023/10/23 02:11:21;;;;;;;41.83;16.40;;;6.60;99.90;;;;;;4365083;28;659253;-70
2023/10/23 02:14:08;;;;;;;29.43;17.00;;;6.60;99.90;;;;;;4350504;28;659368;-70
2023/10/23 02:16:56;;;;;;;29.27;15.90;;;6.60;99.90;;;;;;4370014;28;659384;-70
2023/10/23 02:19:43;;;;;;;40.35;17.20;;;6.60;99.90;;;;;;4352548;28;658770;-70
2023/10/23 02:22:31;;;;;;;33.27;16.80;;;6.60;99.90;;;;;;4361804;28;659888;-70
2023/10/23 02:25:18;;;;;;;31.67;15.00;;;6.60;99.90;;;;;;4348636;28;659205;-70
2023/10/23 02:28:05;;;;;;;29.67;15.93;;;6.50;99.90;;;;;;4366134;28;659804;-70
2023/10/23 02:30:52;;;;;;;29.07;15.70;;;6.50;99.90;;;;;;4362119;28;658614;-70
2023/10/23 02:33:41;;;;;;;29.27;15.17;;;6.50;99.90;;;;;;4377502;28;658893;-70
2023/10/23 02:36:28;;;;;;;31.83;15.83;;;6.50;99.90;;;;;;4353359;28;658949;-70
2023/10/23 02:39:16;;;;;;;27.10;14.77;;;6.60;99.90;;;;;;4370935;28;659329;-70
2023/10/23 02:42:03;;;;;;;26.97;14.70;;;6.60;99.90;;;;;;4350630;28;658548;-70
2023/10/23 02:44:50;;;;;;;32.53;15.20;;;6.70;99.90;;;;;;4371978;28;659301;-70
2023/10/23 02:47:38;;;;;;;24.27;13.90;;;6.70;99.90;;;;;;4351788;28;659238;-70
2023/10/23 02:50:26;;;;;;;29.13;14.63;;;6.70;99.90;;;;;;4368752;28;659855;-70
2023/10/23 02:53:13;;;;;;;27.73;13.77;;;6.70;99.90;;;;;;4350783;28;658793;-70
2023/10/23 02:56:02;;;;;;;28.90;15.20;;;6.70;99.90;;;;;;4370356;28;659031;-70
2023/10/23 02:58:49;;;;;;;36.17;16.23;;;6.60;99.90;;;;;;4347291;28;659351;-70
2023/10/23 03:01:37;;;;;;;33.77;18.50;;;6.60;99.90;;;;;;4363090;28;659090;-70
2023/10/23 03:04:24;;;;;;;35.57;16.50;;;6.60;99.90;;;;;;4343030;28;659788;-70
2023/10/23 03:07:13;;;;;;;161.30;19.00;;;6.60;99.90;;;;;;4373331;28;658867;-70
2023/10/23 03:10:00;;;;;;;108.17;16.57;;;6.60;99.90;;;;;;4341987;28;660572;-70
2023/10/23 03:12:47;;;;;;;25.50;15.13;;;6.50;99.90;;;;;;4353139;28;660284;-71
2023/10/23 03:15:35;;;;;;;24.63;15.60;;;6.50;99.90;;;;;;4368710;28;659697;-71
2023/10/23 03:18:23;;;;;;;24.95;15.32;;;6.50;99.90;;;;;;4349852;28;658759;-71
2023/10/23 03:21:10;;;;;;;30.33;15.90;;;6.50;99.90;;;;;;4370326;28;659532;-71
2023/10/23 03:23:59;;;;;;;33.90;16.60;;;6.40;99.90;;;;;;4368064;28;658939;-70
2023/10/23 03:26:46;;;;;;;26.87;16.67;;;6.50;99.90;;;;;;4374617;28;659150;-70
2023/10/23 03:29:33;;;;;;;31.37;17.87;;;6.50;99.90;;;;;;4348980;28;658170;-70
2023/10/23 03:32:20;;;;;;;27.60;16.77;;;6.50;99.90;;;;;;4374304;28;659061;-70
2023/10/23 03:35:08;;;;;;;23.83;15.17;;;6.50;99.90;;;;;;4351222;28;660091;-70
2023/10/23 03:37:55;;;;;;;27.90;16.53;;;6.40;99.90;;;;;;4371239;28;659000;-70
2023/10/23 03:40:54;;;;;;;36.13;16.40;;;6.50;99.90;;;;;;4354159;28;659142;-71
2023/10/23 03:43:41;;;;;;;25.77;14.83;;;6.50;99.90;;;;;;4344242;28;659170;-70
2023/10/23 03:46:28;;;;;;;26.53;13.87;;;6.40;99.90;;;;;;4350214;28;658483;-70
2023/10/23 03:49:15;;;;;;;26.20;14.47;;;6.50;99.90;;;;;;4369606;28;659128;-70
2023/10/23 03:52:03;;;;;;;25.97;13.60;;;6.50;99.90;;;;;;4352937;28;658974;-70
2023/10/23 03:54:50;;;;;;;23.73;13.53;;;6.60;99.90;;;;;;4372985;28;659024;-70
2023/10/23 03:57:39;;;;;;;23.75;13.52;;;6.60;99.90;;;;;;4355451;28;658244;-70
2023/10/23 04:00:26;;;;;;;20.57;12.67;;;6.50;99.90;;;;;;4364655;28;658106;-70
2023/10/23 04:03:13;;;;;;;22.57;12.13;;;6.50;99.90;;;;;;4351805;28;659196;-70
2023/10/23 04:06:03;;;;;;;19.27;11.87;;;6.40;99.90;;;;;;4371058;28;658876;-70
2023/10/23 04:08:52;;;;;;;22.80;12.67;;;6.40;99.90;;;;;;4347266;28;659204;-70
2023/10/23 04:11:39;;;;;;;22.20;12.03;;;6.40;99.90;;;;;;4342811;28;659587;-70
2023/10/23 04:14:28;;;;;;;18.07;10.57;;;6.40;99.90;;;;;;4367694;28;658880;-71
2023/10/23 04:17:15;;;;;;;21.97;9.93;;;6.40;99.90;;;;;;4353299;28;659402;-70
2023/10/23 04:20:04;;;;;;;16.00;9.93;;;6.50;99.90;;;;;;4363688;28;657195;-70
2023/10/23 04:22:51;;;;;;;26.17;10.57;;;6.70;99.90;;;;;;4369820;28;657537;-70
2023/10/23 04:25:38;;;;;;;16.03;8.70;;;6.70;99.90;;;;;;4353571;28;658620;-70
2023/10/23 04:28:25;;;;;;;21.33;9.23;;;6.80;99.90;;;;;;4369018;28;658563;-70
2023/10/23 04:31:14;;;;;;;19.83;9.10;;;6.90;99.90;;;;;;4352889;28;658054;-71
2023/10/23 04:34:01;;;;;;;14.03;8.13;;;6.80;99.90;;;;;;4365899;28;657404;-70
2023/10/23 04:36:48;;;;;;;12.97;8.50;;;6.80;99.90;;;;;;4348548;28;657986;-70
2023/10/23 04:39:36;;;;;;;12.63;7.23;;;6.80;99.90;;;;;;4367043;28;657680;-70
2023/10/23 04:42:23;;;;;;;14.80;8.03;;;6.80;99.90;;;;;;4351053;28;657889;-70
2023/10/23 04:45:11;;;;;;;19.67;9.10;;;6.90;99.90;;;;;;4374628;28;658776;-71
2023/10/23 04:47:59;;;;;;;17.90;9.10;;;7.10;99.90;;;;;;4348468;28;657485;-71
2023/10/23 04:50:46;;;;;;;18.33;9.13;;;7.00;99.90;;;;;;4374972;28;657497;-70
2023/10/23 04:53:34;;;;;;;15.23;8.80;;;7.00;99.90;;;;;;4349393;28;657991;-71
2023/10/23 04:56:21;;;;;;;22.97;8.70;;;7.10;99.90;;;;;;4371577;28;658643;-70
2023/10/23 04:59:08;;;;;;;15.20;8.83;;;7.10;99.90;;;;;;4346637;28;658236;-71
2023/10/23 05:01:56;;;;;;;20.25;10.93;;;7.10;99.90;;;;;;4367589;28;658403;-71
2023/10/23 05:04:44;;;;;;;25.23;12.50;;;7.50;99.90;;;;;;4348762;28;658925;-71
2023/10/23 05:07:31;;;;;;;26.00;12.60;;;7.50;99.90;;;;;;4368611;28;658607;-71
2023/10/23 05:10:19;;;;;;;19.50;10.88;;;7.50;99.90;;;;;;4343309;28;658904;-69
2023/10/23 05:13:06;;;;;;;27.23;12.63;;;7.60;99.90;;;;;;4373332;28;659554;-71
2023/10/23 05:15:53;;;;;;;24.20;12.80;;;7.70;99.90;;;;;;4345030;28;659133;-71
2023/10/23 05:18:40;;;;;;;26.67;13.53;;;7.60;99.90;;;;;;4371098;28;659345;-71
2023/10/23 05:21:29;;;;;;;25.07;12.47;;;7.50;99.90;;;;;;4345154;28;659166;-71
2023/10/23 05:24:16;;;;;;;24.33;12.23;;;7.50;99.90;;;;;;4365443;28;658790;-70
2023/10/23 05:27:04;;;;;;;24.50;12.67;;;7.50;99.90;;;;;;4347791;28;659137;-70
2023/10/23 05:29:51;;;;;;;30.83;12.33;;;7.50;99.90;;;;;;4367692;28;658989;-70
2023/10/23 05:32:38;;;;;;;18.13;10.60;;;7.60;99.90;;;;;;4349002;28;658590;-70
2023/10/23 05:35:26;;;;;;;20.43;12.30;;;7.60;99.90;;;;;;4368749;28;660074;-70
2023/10/23 05:38:14;;;;;;;23.13;12.50;;;7.60;99.90;;;;;;4349683;28;659422;-71
2023/10/23 05:41:02;;;;;;;24.20;12.53;;;7.50;99.90;;;;;;4366686;28;658839;-70
2023/10/23 05:43:49;;;;;;;25.33;13.63;;;7.50;99.90;;;;;;4344585;28;659026;-71
2023/10/23 05:46:36;;;;;;;24.70;13.23;;;7.50;99.90;;;;;;4361928;28;658516;-71
2023/10/23 05:49:23;;;;;;;18.13;12.37;;;7.50;99.90;;;;;;4347297;28;658087;-71
2023/10/23 05:52:11;;;;;;;23.27;12.90;;;7.50;99.90;;;;;;4370149;28;659979;-70
2023/10/23 05:55:04;;;;;;;26.43;13.07;;;7.50;99.90;;;;;;4345155;28;658402;-70
2023/10/23 05:57:52;;;;;;;25.47;12.43;;;7.50;99.90;;;;;;4348245;28;659486;-70
2023/10/23 06:00:39;;;;;;;73.13;12.70;;;7.60;99.90;;;;;;4354265;28;658936;-71
2023/10/23 06:03:26;;;;;;;19.03;11.43;;;7.70;99.90;;;;;;4361486;28;658402;-71
2023/10/23 06:06:14;;;;;;;25.30;14.20;;;7.70;99.90;;;;;;4354692;28;658458;-70
2023/10/23 06:09:01;;;;;;;22.40;13.63;;;7.60;99.90;;;;;;4372760;28;658221;-71
2023/10/23 06:11:50;;;;;;;17.70;12.13;;;7.70;99.90;;;;;;4352757;28;658683;-71
2023/10/23 06:14:37;;;;;;;23.53;13.90;;;7.80;99.90;;;;;;4374441;28;658960;-71
2023/10/23 06:17:24;;;;;;;28.63;13.57;;;7.90;99.90;;;;;;4350444;28;659713;-71
2023/10/23 06:20:12;;;;;;;25.83;13.80;;;8.00;99.90;;;;;;4372274;28;658474;-71
2023/10/23 06:22:59;;;;;;;27.63;14.80;;;8.00;99.90;;;;;;4355464;28;659321;-71
2023/10/23 06:25:55;;;;;;;27.77;17.27;;;8.00;99.90;;;;;;4371131;28;659034;-70
2023/10/23 06:28:43;;;;;;;34.80;18.70;;;8.10;99.90;;;;;;4345339;28;659031;-70
2023/10/23 06:31:30;;;;;;;23.60;14.33;;;8.20;99.90;;;;;;4344748;28;659662;-71
2023/10/23 06:34:17;;;;;;;27.33;15.77;;;8.20;99.90;;;;;;4351223;28;658655;-71
2023/10/23 06:37:05;;;;;;;31.20;16.50;;;8.30;99.90;;;;;;4349857;28;659142;-68
2023/10/23 06:39:52;;;;;;;30.93;18.13;;;8.30;99.90;;;;;;4362015;28;658770;-71
2023/10/23 06:42:40;;;;;;;30.53;17.60;;;8.40;99.90;;;;;;4374740;28;659268;-70
2023/10/23 06:45:28;;;;;;;41.47;23.07;;;8.40;99.90;;;;;;4363528;28;658245;-70
2023/10/23 06:48:15;;;;;;;52.93;27.17;;;8.50;99.90;;;;;;4348010;28;659101;-71
2023/10/23 06:51:03;;;;;;;59.70;33.80;;;8.70;99.90;;;;;;4352865;28;659217;-71
2023/10/23 06:53:50;;;;;;;28.37;15.57;;;8.70;99.90;;;;;;4367842;28;659033;-71
2023/10/23 06:56:38;;;;;;;50.53;30.37;;;8.80;99.90;;;;;;4349373;28;659078;-71
2023/10/23 06:59:25;;;;;;;64.90;40.90;;;8.90;99.90;;;;;;4365832;28;659287;-71
2023/10/23 07:02:14;;;;;;;73.67;46.83;;;8.90;99.90;;;;;;4365024;28;659018;-71
2023/10/23 07:05:01;;;;;;;39.40;23.30;;;9.10;99.90;;;;;;4370039;28;659031;-71
2023/10/23 07:07:48;;;;;;;57.60;32.20;;;9.30;99.90;;;;;;4346705;28;659052;-69
2023/10/23 07:10:35;;;;;;;53.93;31.30;;;9.30;99.90;;;;;;4372317;28;659013;-71
2023/10/23 07:13:23;;;;;;;52.87;31.23;;;9.40;99.90;;;;;;4347486;28;658611;-71
2023/10/23 07:16:10;;;;;;;45.73;26.10;;;9.50;99.90;;;;;;4368846;28;658870;-71
2023/10/23 07:18:59;;;;;;;48.47;26.13;;;9.60;99.90;;;;;;4354275;28;659008;-71
2023/10/23 07:21:46;;;;;;;39.57;25.27;;;9.70;99.90;;;;;;4365259;28;658231;-71
2023/10/23 07:24:33;;;;;;;46.67;25.40;;;9.80;99.90;;;;;;4347420;28;660290;-71
2023/10/23 07:27:20;;;;;;;37.33;22.50;;;10.00;99.90;;;;;;4370567;28;659383;-69
2023/10/23 07:30:09;;;;;;;42.87;23.20;;;10.10;99.90;;;;;;4348608;28;660579;-71
2023/10/23 07:32:56;;;;;;;27.23;14.80;;;10.40;99.90;;;;;;4368997;28;659621;-71
2023/10/23 07:35:45;;;;;;;29.03;15.30;;;10.40;99.90;;;;;;4343146;28;659245;-71
2023/10/23 07:38:32;;;;;;;26.07;15.30;;;10.50;99.90;;;;;;4367649;28;659898;-70
2023/10/23 07:41:19;;;;;;;30.13;15.40;;;10.80;99.90;;;;;;4348226;28;659919;-71
2023/10/23 07:44:06;;;;;;;35.57;16.20;;;11.00;99.90;;;;;;4367708;28;659490;-71
2023/10/23 07:46:54;;;;;;;35.23;19.43;;;11.10;99.90;;;;;;4342717;28;659721;-71
2023/10/23 07:49:41;;;;;;;41.77;19.40;;;11.30;99.90;;;;;;4365386;28;660145;-71
2023/10/23 07:52:29;;;;;;;23.63;11.23;;;11.50;99.90;;;;;;4349864;28;659782;-71
2023/10/23 07:55:17;;;;;;;18.03;11.20;;;11.60;99.90;;;;;;4364677;28;660233;-71
2023/10/23 07:58:04;;;;;;;22.57;10.63;;;11.40;99.90;;;;;;4348025;28;659800;-70
2023/10/23 08:00:53;;;;;;;29.47;12.67;;;11.50;99.90;;;;;;4367597;28;661459;-71
2023/10/23 08:03:40;;;;;;;25.63;12.43;;;11.30;99.90;;;;;;4344441;28;660111;-71
2023/10/23 08:06:28;;;;;;;16.50;8.07;;;11.40;99.90;;;;;;4351444;28;660219;-71
2023/10/23 08:09:17;;;;;;;11.10;7.00;;;11.50;99.90;;;;;;4368049;28;659091;-70
2023/10/23 08:12:05;;;;;;;19.50;9.03;;;11.40;99.90;;;;;;4346990;28;659070;-70
2023/10/23 08:14:53;;;;;;;14.13;7.93;;;11.40;99.90;;;;;;4363311;28;659542;-71
2023/10/23 08:17:40;;;;;;;13.73;7.27;;;11.20;99.90;;;;;;4367148;28;659573;-71
2023/10/23 08:20:27;;;;;;;15.43;7.27;;;11.50;99.90;;;;;;4367053;28;659648;-70
2023/10/23 08:23:15;;;;;;;13.87;6.70;;;11.70;99.90;;;;;;4371758;28;658385;-70
2023/10/23 08:26:04;;;;;;;18.23;5.80;;;11.50;99.90;;;;;;4371029;28;658087;-70
2023/10/23 08:28:51;;;;;;;10.93;5.20;;;11.60;99.90;;;;;;4343385;28;658577;-71
2023/10/23 08:31:38;;;;;;;11.63;5.63;;;11.60;99.90;;;;;;4349386;28;658809;-70
2023/10/23 08:34:25;;;;;;;18.17;5.10;;;11.90;99.90;;;;;;4363919;28;659190;-70
2023/10/23 08:37:13;;;;;;;11.37;5.07;;;11.90;99.90;;;;;;4348100;28;658645;-70
2023/10/23 08:40:03;;;;;;;13.50;5.90;;;11.70;99.90;;;;;;4365363;28;659407;-70
2023/10/23 08:42:51;;;;;;;15.60;5.80;;;12.10;99.90;;;;;;4344962;28;659938;-70
2023/10/23 08:45:39;;;;;;;11.17;5.77;;;12.60;99.90;;;;;;4345863;28;658572;-69
2023/10/23 08:48:26;;;;;;;13.73;5.47;;;12.70;99.90;;;;;;4372056;28;658567;-70
2023/10/23 08:51:13;;;;;;;13.23;5.07;;;13.20;99.90;;;;;;4347036;28;658544;-70
2023/10/23 08:54:03;;;;;;;17.30;6.30;;;13.00;99.90;;;;;;4368182;28;659362;-69
2023/10/23 08:56:53;;;;;;;12.97;4.27;;;13.70;99.90;;;;;;4348148;28;659118;-69
2023/10/23 08:59:42;;;;;;;8.07;4.80;;;14.10;99.90;;;;;;4345723;28;659081;-69
2023/10/23 09:02:31;;;;;;;15.47;4.13;;;14.30;99.90;;;;;;4346259;28;658218;-67
2023/10/23 09:05:19;;;;;;;10.43;3.97;;;15.20;99.90;;;;;;4347062;28;660346;-69
2023/10/23 09:08:06;;;;;;;10.43;4.03;;;15.20;99.90;;;;;;4364792;28;659281;-69
2023/10/23 09:10:59;;;;;;;9.13;3.20;;;14.00;99.90;;;;;;4350490;28;658458;-69
2023/10/23 09:13:47;;;;;;;4.90;2.37;;;14.20;99.90;;;;;;4346253;28;657963;-67
2023/10/23 09:16:35;;;;;;;12.73;4.20;;;14.10;99.90;;;;;;4344794;28;658086;-69
2023/10/23 09:19:27;;;;;;;1.47;0.93;;;14.00;99.90;;;;;;4350031;28;658673;-69
2023/10/23 09:22:14;;;;;;;10.17;3.50;;;14.10;99.90;;;;;;4349544;28;657821;-69
2023/10/23 09:25:01;;;;;;;10.70;4.73;;;14.10;99.90;;;;;;4365407;28;659224;-69
2023/10/23 09:27:48;;;;;;;9.83;4.30;;;14.20;99.90;;;;;;4351098;28;659804;-69
2023/10/23 09:30:36;;;;;;;15.10;5.70;;;14.20;99.90;;;;;;4370508;28;658674;-69
2023/10/23 09:33:25;;;;;;;11.00;5.87;;;14.60;99.90;;;;;;4347006;28;659368;-69
2023/10/23 09:36:12;;;;;;;17.93;6.47;;;14.90;99.90;;;;;;4368944;28;658669;-69
2023/10/23 09:39:01;;;;;;;14.57;5.43;;;14.70;99.90;;;;;;4350471;28;659838;-69
2023/10/23 09:41:48;;;;;;;9.73;4.30;;;14.80;99.90;;;;;;4349196;28;660185;-69
2023/10/23 09:44:36;;;;;;;10.87;3.60;;;15.70;99.90;;;;;;4370740;28;658586;-69
2023/10/23 09:47:24;;;;;;;10.47;4.30;;;16.20;99.90;;;;;;4350489;28;659473;-69
2023/10/23 09:50:12;;;;;;;17.23;5.63;;;16.10;99.90;;;;;;4372694;28;659261;-69
2023/10/23 09:53:00;;;;;;;8.60;3.83;;;16.30;99.90;;;;;;4348598;28;659447;-67
2023/10/23 09:55:47;;;;;;;12.13;3.90;;;15.80;99.90;;;;;;4373598;28;658069;-67
2023/10/23 09:58:35;;;;;;;9.87;3.70;;;16.00;99.90;;;;;;4348610;28;658839;-69
2023/10/23 10:01:23;;;;;;;10.57;3.83;;;15.70;99.90;;;;;;4362609;28;657346;-67
2023/10/23 10:04:13;;;;;;;9.53;3.70;;;16.40;99.90;;;;;;4370437;28;659366;-67
2023/10/23 10:07:06;;;;;;;11.50;3.67;;;16.70;99.90;;;;;;4349772;28;658239;-67
2023/10/23 10:09:53;;;;;;;11.97;3.40;;;17.40;99.90;;;;;;4326659;28;658697;-66
2023/10/23 10:12:40;;;;;;;7.23;2.73;;;16.90;99.90;;;;;;4372131;28;659319;-67
2023/10/23 10:15:27;;;;;;;7.03;3.10;;;17.30;99.90;;;;;;4354321;28;657442;-68
2023/10/23 10:18:16;;;;;;;7.37;2.83;;;17.30;99.90;;;;;;4371996;28;657909;-66
2023/10/23 10:21:05;;;;;;;3.87;1.93;;;15.90;99.90;;;;;;4352940;28;657949;-68
2023/10/23 10:23:54;;;;;;;5.80;2.37;;;15.90;99.90;;;;;;4369080;28;657983;-68
2023/10/23 10:26:41;;;;;;;8.07;2.97;;;16.00;99.90;;;;;;4370844;28;657146;-68
2023/10/23 10:29:28;;;;;;;11.33;3.10;;;16.30;99.90;;;;;;4351799;28;657573;-67
2023/10/23 10:32:15;;;;;;;10.53;2.53;;;17.20;99.90;;;;;;4371737;28;659450;-67
2023/10/23 10:35:06;;;;;;;3.67;1.53;;;17.90;99.90;;;;;;4352628;28;659645;-68
2023/10/23 10:37:53;;;;;;;7.97;2.77;;;18.00;99.90;;;;;;4351404;28;657744;-68
2023/10/23 10:40:58;;;;;;;10.13;2.93;;;17.20;99.90;;;;;;4375022;28;657186;-66
2023/10/23 10:43:51;;;;;;;10.13;2.90;;;17.90;99.90;;;;;;4347337;28;658802;-68
2023/10/23 10:46:40;;;;;;;7.80;2.30;;;18.00;99.90;;;;;;4355049;28;658745;-66
2023/10/23 10:49:31;;;;;;;9.00;2.80;;;18.20;99.90;;;;;;4355329;28;658240;-66
2023/10/23 10:52:27;;;;;;;2.90;1.10;;;17.80;99.90;;;;;;4351251;28;657274;-66
2023/10/23 10:55:14;;;;;;;9.83;2.30;;;17.70;99.90;;;;;;4328491;28;658276;-68
2023/10/23 10:58:03;;;;;;;6.33;2.40;;;17.40;99.90;;;;;;4371396;28;657731;-68
2023/10/23 11:00:50;;;;;;;6.40;1.90;;;17.30;99.90;;;;;;4351257;28;657792;-66
2023/10/23 11:03:37;;;;;;;10.03;2.47;;;17.70;99.90;;;;;;4354628;28;657702;-68
2023/10/23 11:06:25;;;;;;;6.50;2.07;;;17.40;99.90;;;;;;4374035;28;659124;-66
2023/10/23 11:09:12;;;;;;;6.77;2.17;;;18.30;99.90;;;;;;4368089;28;658451;-66
2023/10/23 11:12:00;;;;;;;9.47;2.50;;;17.90;99.90;;;;;;4365860;28;658020;-66
2023/10/23 11:14:49;;;;;;;7.87;1.97;;;18.50;99.90;;;;;;4370944;28;657808;-66
2023/10/23 11:17:36;;;;;;;8.97;2.33;;;19.40;97.30;;;;;;4369453;28;657705;-68
2023/10/23 11:20:28;;;;;;;10.40;2.43;;;19.10;99.90;;;;;;4356176;28;658483;-66
2023/10/23 11:23:16;;;;;;;5.43;2.10;;;19.40;86.00;;;;;;4352283;28;658514;-67
2023/10/23 11:26:04;;;;;;;3.33;1.53;;;19.10;88.10;;;;;;4350642;28;657547;-66
2023/10/23 11:28:51;;;;;;;2.73;1.20;;;19.40;79.40;;;;;;4373758;28;658506;-68
2023/10/23 11:31:40;;;;;;;6.90;2.47;;;19.20;94.80;;;;;;4355002;28;657788;-66
2023/10/23 11:34:28;;;;;;;9.70;2.20;;;18.80;99.80;;;;;;4355306;28;657329;-66
2023/10/23 11:37:15;;;;;;;8.67;2.33;;;19.30;93.10;;;;;;4373254;28;658188;-66
2023/10/23 11:40:05;;;;;;;11.17;2.00;;;19.90;90.90;;;;;;4351136;28;657613;-66
2023/10/23 11:42:54;;;;;;;5.40;2.23;;;20.40;65.60;;;;;;4350024;28;658689;-67
2023/10/23 11:45:42;;;;;;;7.70;2.20;;;18.10;99.40;;;;;;4368968;28;657653;-68
2023/10/23 11:48:30;;;;;;;8.87;2.83;;;18.80;81.00;;;;;;4352697;28;657574;-68
2023/10/23 11:51:17;;;;;;;7.13;2.10;;;19.20;92.70;;;;;;4348773;28;657469;-66
2023/10/23 11:54:05;;;;;;;1.60;0.97;;;19.40;74.10;;;;;;4367889;28;658693;-66
2023/10/23 11:56:54;;;;;;;7.23;2.80;;;19.20;70.80;;;;;;4355807;28;657985;-68
2023/10/23 11:59:42;;;;;;;6.67;2.70;;;18.60;76.00;;;;;;4374202;28;657823;-66
2023/10/23 12:02:29;;;;;;;5.47;1.80;;;18.50;81.80;;;;;;4347188;28;658638;-66
2023/10/23 12:05:18;;;;;;;6.27;2.03;;;19.30;73.00;;;;;;4372219;28;658202;-66
2023/10/23 12:08:06;;;;;;;8.87;2.40;;;19.70;67.30;;;;;;4347709;28;658468;-68
2023/10/23 12:10:53;;;;;;;7.83;2.77;;;19.30;73.00;;;;;;4349141;28;658120;-66
2023/10/23 12:13:41;;;;;;;9.00;2.77;;;18.90;74.00;;;;;;4369514;28;658869;-66
2023/10/23 12:16:28;;;;;;;12.07;3.20;;;18.70;92.70;;;;;;4350135;28;658545;-66
2023/10/23 12:19:15;;;;;;;8.13;2.50;;;20.00;72.90;;;;;;4368140;28;659311;-65
2023/10/23 12:22:04;;;;;;;14.47;2.93;;;19.20;79.30;;;;;;4351910;28;657353;-66
2023/10/23 12:24:51;;;;;;;14.60;3.50;;;19.20;83.00;;;;;;4369482;28;659268;-68
2023/10/23 12:27:39;;;;;;;7.77;3.00;;;17.60;99.90;;;;;;4344752;28;659294;-66
2023/10/23 12:30:26;;;;;;;10.13;2.77;;;17.10;99.90;;;;;;4371406;28;656841;-66
2023/10/23 12:33:13;;;;;;;6.63;2.50;;;17.10;99.90;;;;;;4353175;28;658722;-66
2023/10/23 12:36:03;;;;;;;9.87;3.03;;;17.90;99.90;;;;;;4373778;28;657232;-68
2023/10/23 12:38:52;;;;;;;7.67;2.17;;;18.50;99.90;;;;;;4348020;28;658798;-67
2023/10/23 12:41:39;;;;;;;3.20;1.50;;;18.60;91.00;;;;;;4344875;28;659225;-68
2023/10/23 12:44:26;;;;;;;7.73;2.57;;;18.30;94.20;;;;;;4372408;28;657478;-68
2023/10/23 12:47:13;;;;;;;8.07;2.77;;;18.70;99.90;;;;;;4349878;28;657445;-66
2023/10/23 12:50:01;;;;;;;6.57;2.37;;;19.20;99.90;;;;;;4374320;28;658311;-66
2023/10/23 12:52:48;;;;;;;8.77;2.27;;;19.50;72.40;;;;;;4347634;28;659541;-66
2023/10/23 12:55:37;;;;;;;8.20;2.63;;;20.00;71.60;;;;;;4373764;28;658110;-66
2023/10/23 12:58:24;;;;;;;14.63;2.83;;;19.70;64.50;;;;;;4348062;28;658598;-66
2023/10/23 13:01:11;;;;;;;7.50;2.43;;;19.20;66.50;;;;;;4375166;28;658882;-66
2023/10/23 13:03:59;;;;;;;10.50;2.20;;;19.00;67.30;;;;;;4347848;28;657491;-68
2023/10/23 13:06:46;;;;;;;6.67;2.03;;;19.90;70.00;;;;;;4364726;28;659731;-68
2023/10/23 13:09:34;;;;;;;6.87;2.13;;;19.20;80.80;;;;;;4341702;28;657855;-68
2023/10/23 13:12:22;;;;;;;6.13;2.17;;;18.50;80.50;;;;;;4369433;28;657331;-68
2023/10/23 13:15:09;;;;;;;9.87;2.23;;;18.20;81.30;;;;;;4351645;28;658615;-65
2023/10/23 13:18:00;;;;;;;7.63;1.77;;;19.20;72.50;;;;;;4371155;28;657871;-68
2023/10/23 13:20:47;;;;;;;7.20;1.77;;;19.50;76.60;;;;;;4342860;28;658527;-68
2023/10/23 13:23:34;;;;;;;7.47;1.90;;;19.00;68.00;;;;;;4345820;28;658681;-68
2023/10/23 13:26:22;;;;;;;8.40;1.70;;;19.10;81.50;;;;;;4362369;28;658630;-68
2023/10/23 13:29:10;;;;;;;10.03;1.67;;;18.40;81.20;;;;;;4348892;28;658527;-68
2023/10/23 13:31:57;;;;;;;3.23;1.60;;;18.60;72.50;;;;;;4349272;28;660154;-67
2023/10/23 13:34:45;;;;;;;6.17;1.70;;;18.50;84.30;;;;;;4374973;28;658123;-67
2023/10/23 13:37:32;;;;;;;6.53;1.80;;;18.40;84.20;;;;;;4370108;28;658313;-67
2023/10/23 13:40:20;;;;;;;6.03;1.70;;;18.70;75.90;;;;;;4372130;28;656693;-67
2023/10/23 13:43:07;;;;;;;5.17;1.50;;;17.60;97.70;;;;;;4364606;28;657466;-66
2023/10/23 13:45:56;;;;;;;5.27;1.70;;;17.80;99.90;;;;;;4367638;28;657808;-68
2023/10/23 13:48:44;;;;;;;10.57;1.77;;;17.50;91.00;;;;;;4350506;28;657527;-67
2023/10/23 13:51:31;;;;;;;5.10;1.47;;;17.70;99.90;;;;;;4369325;28;658686;-67
2023/10/23 13:54:18;;;;;;;8.37;1.90;;;17.60;99.90;;;;;;4352037;28;657659;-67
2023/10/23 13:57:06;;;;;;;9.13;2.30;;;17.40;99.90;;;;;;4377218;28;657835;-68
2023/10/23 13:59:53;;;;;;;5.40;1.53;;;17.30;99.90;;;;;;4352075;28;657609;-67
2023/10/23 14:02:42;;;;;;;5.80;1.80;;;17.00;99.90;;;;;;4374639;28;658405;-67
2023/10/23 14:05:29;;;;;;;7.03;2.43;;;17.20;99.90;;;;;;4347988;28;657904;-67
2023/10/23 14:08:16;;;;;;;7.90;1.67;;;17.40;99.90;;;;;;4369560;28;658174;-67
2023/10/23 14:11:03;;;;;;;5.00;1.80;;;17.40;99.90;;;;;;4350969;28;657485;-68